sensor_id;sensor_type;location;lat;lon;timestamp;pressure;altitude;pressure_sealevel;temperature;humidity
30152;BME280;16963;26.018;-80.216;2022-09-03T00:05:16;101643.41;;;32.08;56.31
30152;BME280;16963;26.018;-80.216;2022-09-03T00:10:24;101631.09;;;32.04;58.20
30152;BME280;16963;26.018;-80.216;2022-09-03T00:12:58;101639.78;;;31.98;58.78
30152;BME280;16963;26.018;-80.216;2022-09-03T00:15:32;101638.19;;;31.95;58.81
30152;BME280;16963;26.018;-80.216;2022-09-03T00:18:17;101648.75;;;32.19;58.87
30152;BME280;16963;26.018;-80.216;2022-09-03T00:20:51;101653.13;;;32.01;58.51
30152;BME280;16963;26.018;-80.216;2022-09-03T00:23:27;101659.06;;;31.95;57.49
30152;BME280;16963;26.018;-80.216;2022-09-03T00:31:35;101681.16;;;31.80;57.75
30152;BME280;16963;26.018;-80.216;2022-09-03T00:36:49;101682.09;;;31.70;57.76
30152;BME280;16963;26.018;-80.216;2022-09-03T00:39:19;101692.81;;;31.71;57.44
30152;BME280;16963;26.018;-80.216;2022-09-03T00:42:02;101689.22;;;31.71;58.31
30152;BME280;16963;26.018;-80.216;2022-09-03T00:47:29;101701.53;;;31.75;58.07
30152;BME280;16963;26.018;-80.216;2022-09-03T00:55:55;101713.81;;;31.69;57.61
30152;BME280;16963;26.018;-80.216;2022-09-03T01:01:29;101718.19;;;31.60;57.96
30152;BME280;16963;26.018;-80.216;2022-09-03T01:07:04;101741.19;;;31.66;58.31
30152;BME280;16963;26.018;-80.216;2022-09-03T01:15:16;101770.00;;;31.57;58.66
30152;BME280;16963;26.018;-80.216;2022-09-03T01:44:38;101797.53;;;31.53;58.28
30152;BME280;16963;26.018;-80.216;2022-09-03T01:59:07;101807.59;;;31.30;57.11
30152;BME280;16963;26.018;-80.216;2022-09-03T02:02:06;101817.31;;;31.32;58.88
30152;BME280;16963;26.018;-80.216;2022-09-03T02:06:30;101815.59;;;31.31;58.94
30152;BME280;16963;26.018;-80.216;2022-09-03T02:09:05;101806.34;;;31.34;59.03
30152;BME280;16963;26.018;-80.216;2022-09-03T02:11:32;101823.84;;;31.30;58.71
30152;BME280;16963;26.018;-80.216;2022-09-03T02:14:04;101823.25;;;31.26;58.57
30152;BME280;16963;26.018;-80.216;2022-09-03T02:16:34;101831.53;;;31.25;59.27
30152;BME280;16963;26.018;-80.216;2022-09-03T02:19:07;101831.78;;;31.22;59.04
30152;BME280;16963;26.018;-80.216;2022-09-03T02:21:52;101833.75;;;31.19;59.58
30152;BME280;16963;26.018;-80.216;2022-09-03T02:24:24;101830.19;;;31.19;59.71
30152;BME280;16963;26.018;-80.216;2022-09-03T02:26:52;101845.22;;;31.23;60.00
30152;BME280;16963;26.018;-80.216;2022-09-03T02:31:25;101848.66;;;31.25;58.86
30152;BME280;16963;26.018;-80.216;2022-09-03T02:33:56;101841.25;;;31.27;59.09
30152;BME280;16963;26.018;-80.216;2022-09-03T02:36:29;101844.09;;;31.26;59.60
30152;BME280;16963;26.018;-80.216;2022-09-03T02:39:00;101846.34;;;31.20;59.77
30152;BME280;16963;26.018;-80.216;2022-09-03T02:41:27;101845.44;;;31.20;59.20
30152;BME280;16963;26.018;-80.216;2022-09-03T02:44:19;101838.31;;;31.19;59.36
30152;BME280;16963;26.018;-80.216;2022-09-03T02:47:02;101832.91;;;31.19;59.87
30152;BME280;16963;26.018;-80.216;2022-09-03T02:49:32;101827.47;;;31.19;59.68
30152;BME280;16963;26.018;-80.216;2022-09-03T02:54:38;101826.22;;;31.23;60.24
30152;BME280;16963;26.018;-80.216;2022-09-03T02:57:08;101818.09;;;31.23;60.44
30152;BME280;16963;26.018;-80.216;2022-09-03T02:59:36;101819.81;;;31.24;60.64
30152;BME280;16963;26.018;-80.216;2022-09-03T03:02:06;101822.66;;;31.23;60.59
30152;BME280;16963;26.018;-80.216;2022-09-03T03:04:34;101822.66;;;31.23;60.96
30152;BME280;16963;26.018;-80.216;2022-09-03T03:07:02;101814.66;;;31.21;61.02
30152;BME280;16963;26.018;-80.216;2022-09-03T03:09:32;101812.34;;;31.16;59.99
30152;BME280;16963;26.018;-80.216;2022-09-03T03:12:01;101815.16;;;31.15;61.17
30152;BME280;16963;26.018;-80.216;2022-09-03T03:14:47;101819.84;;;31.13;61.03
30152;BME280;16963;26.018;-80.216;2022-09-03T03:19:46;101819.84;;;31.13;61.66
30152;BME280;16963;26.018;-80.216;2022-09-03T03:22:15;101818.00;;;31.13;61.74
30152;BME280;16963;26.018;-80.216;2022-09-03T03:24:42;101809.13;;;31.11;61.19
30152;BME280;16963;26.018;-80.216;2022-09-03T03:27:12;101806.69;;;31.08;61.73
30152;BME280;16963;26.018;-80.216;2022-09-03T03:29:41;101819.63;;;31.05;61.46
30152;BME280;16963;26.018;-80.216;2022-09-03T03:32:10;101808.78;;;31.05;61.62
30152;BME280;16963;26.018;-80.216;2022-09-03T03:34:38;101806.94;;;31.05;61.42
30152;BME280;16963;26.018;-80.216;2022-09-03T03:37:06;101796.22;;;31.04;61.03
30152;BME280;16963;26.018;-80.216;2022-09-03T03:40:27;101797.31;;;31.01;61.08
30152;BME280;16963;26.018;-80.216;2022-09-03T03:42:57;101795.63;;;31.00;61.33
30152;BME280;16963;26.018;-80.216;2022-09-03T03:45:28;101795.00;;;30.96;61.14
30152;BME280;16963;26.018;-80.216;2022-09-03T03:47:58;101803.25;;;30.95;61.09
30152;BME280;16963;26.018;-80.216;2022-09-03T03:50:26;101797.25;;;30.91;60.99
30152;BME280;16963;26.018;-80.216;2022-09-03T03:52:58;101790.09;;;30.90;61.24
30152;BME280;16963;26.018;-80.216;2022-09-03T03:55:28;101793.06;;;30.87;61.77
30152;BME280;16963;26.018;-80.216;2022-09-03T03:58:01;101781.69;;;30.82;61.45
30152;BME280;16963;26.018;-80.216;2022-09-03T04:00:47;101781.97;;;30.79;62.04
30152;BME280;16963;26.018;-80.216;2022-09-03T04:06:10;101782.47;;;30.73;61.80
30152;BME280;16963;26.018;-80.216;2022-09-03T04:08:41;101787.16;;;30.71;61.86
30152;BME280;16963;26.018;-80.216;2022-09-03T04:11:16;101787.41;;;30.68;62.65
30152;BME280;16963;26.018;-80.216;2022-09-03T04:13:45;101785.94;;;30.64;62.74
30152;BME280;16963;26.018;-80.216;2022-09-03T04:16:23;101788.88;;;30.60;62.69
30152;BME280;16963;26.018;-80.216;2022-09-03T04:18:56;101780.28;;;30.55;62.63
30152;BME280;16963;26.018;-80.216;2022-09-03T04:21:27;101779.56;;;30.53;63.10
30152;BME280;16963;26.018;-80.216;2022-09-03T04:23:56;101769.09;;;30.49;63.16
30152;BME280;16963;26.018;-80.216;2022-09-03T04:26:28;101768.22;;;30.48;63.40
30152;BME280;16963;26.018;-80.216;2022-09-03T04:29:08;101762.31;;;30.43;63.34
30152;BME280;16963;26.018;-80.216;2022-09-03T04:31:37;101768.97;;;30.39;63.47
30152;BME280;16963;26.018;-80.216;2022-09-03T04:34:06;101769.09;;;30.37;63.81
30152;BME280;16963;26.018;-80.216;2022-09-03T04:36:35;101766.53;;;30.36;63.49
30152;BME280;16963;26.018;-80.216;2022-09-03T04:39:06;101760.38;;;30.34;63.92
30152;BME280;16963;26.018;-80.216;2022-09-03T04:41:35;101757.91;;;30.31;63.73
30152;BME280;16963;26.018;-80.216;2022-09-03T04:44:05;101750.00;;;30.28;64.10
30152;BME280;16963;26.018;-80.216;2022-09-03T04:46:38;101743.97;;;30.24;64.00
30152;BME280;16963;26.018;-80.216;2022-09-03T04:50:47;101749.88;;;30.18;64.13
30152;BME280;16963;26.018;-80.216;2022-09-03T04:53:15;101738.19;;;30.17;63.96
30152;BME280;16963;26.018;-80.216;2022-09-03T04:55:44;101747.28;;;30.16;64.55
30152;BME280;16963;26.018;-80.216;2022-09-03T04:58:12;101740.16;;;30.15;64.27
30152;BME280;16963;26.018;-80.216;2022-09-03T05:00:41;101743.84;;;30.14;63.95
30152;BME280;16963;26.018;-80.216;2022-09-03T05:03:10;101738.41;;;30.14;64.47
30152;BME280;16963;26.018;-80.216;2022-09-03T05:05:38;101733.28;;;30.11;64.63
30152;BME280;16963;26.018;-80.216;2022-09-03T05:08:09;101728.81;;;30.10;64.61
30152;BME280;16963;26.018;-80.216;2022-09-03T05:10:58;101724.41;;;30.09;64.96
30152;BME280;16963;26.018;-80.216;2022-09-03T05:16:17;101723.16;;;30.02;64.72
30152;BME280;16963;26.018;-80.216;2022-09-03T05:18:46;101716.03;;;30.01;64.77
30152;BME280;16963;26.018;-80.216;2022-09-03T05:21:17;101707.06;;;30.01;64.80
30152;BME280;16963;26.018;-80.216;2022-09-03T05:23:48;101706.19;;;30.00;64.99
30152;BME280;16963;26.018;-80.216;2022-09-03T05:26:18;101698.22;;;29.98;65.09
30152;BME280;16963;26.018;-80.216;2022-09-03T05:28:47;101703.63;;;29.98;65.46
30152;BME280;16963;26.018;-80.216;2022-09-03T05:31:19;101703.72;;;29.97;65.32
30152;BME280;16963;26.018;-80.216;2022-09-03T05:33:51;101704.00;;;29.94;65.19
30152;BME280;16963;26.018;-80.216;2022-09-03T05:36:23;101704.22;;;29.91;65.15
30152;BME280;16963;26.018;-80.216;2022-09-03T05:39:06;101696.84;;;30.15;66.40
30152;BME280;16963;26.018;-80.216;2022-09-03T05:41:35;101696.09;;;30.02;65.85
30152;BME280;16963;26.018;-80.216;2022-09-03T05:44:04;101703.84;;;29.95;65.62
30152;BME280;16963;26.018;-80.216;2022-09-03T05:46:33;101702.38;;;29.91;65.98
30152;BME280;16963;26.018;-80.216;2022-09-03T05:49:06;101701.63;;;29.89;65.65
30152;BME280;16963;26.018;-80.216;2022-09-03T05:51:38;101697.34;;;29.87;65.83
30152;BME280;16963;26.018;-80.216;2022-09-03T05:54:06;101688.75;;;29.82;65.89
30152;BME280;16963;26.018;-80.216;2022-09-03T05:56:38;101692.66;;;29.77;66.46
30152;BME280;16963;26.018;-80.216;2022-09-03T05:59:19;101694.13;;;29.70;66.51
30152;BME280;16963;26.018;-80.216;2022-09-03T06:01:47;101684.63;;;29.65;67.36
30152;BME280;16963;26.018;-80.216;2022-09-03T06:04:25;101680.44;;;29.61;67.94
30152;BME280;16963;26.018;-80.216;2022-09-03T06:06:55;101672.44;;;29.59;68.39
30152;BME280;16963;26.018;-80.216;2022-09-03T06:09:22;101671.69;;;29.57;68.66
30152;BME280;16963;26.018;-80.216;2022-09-03T06:11:55;101669.84;;;29.57;68.58
30152;BME280;16963;26.018;-80.216;2022-09-03T06:14:27;101663.59;;;29.57;68.84
30152;BME280;16963;26.018;-80.216;2022-09-03T06:16:55;101660.16;;;29.55;68.65
30152;BME280;16963;26.018;-80.216;2022-09-03T06:19:25;101667.28;;;29.56;69.26
30152;BME280;16963;26.018;-80.216;2022-09-03T06:21:52;101662.09;;;29.53;69.28
30152;BME280;16963;26.018;-80.216;2022-09-03T06:24:25;101671.22;;;29.52;69.46
30152;BME280;16963;26.018;-80.216;2022-09-03T06:26:56;101671.22;;;29.52;69.61
30152;BME280;16963;26.018;-80.216;2022-09-03T06:29:25;101656.97;;;29.50;69.70
30152;BME280;16963;26.018;-80.216;2022-09-03T06:31:57;101655.22;;;29.49;69.57
30152;BME280;16963;26.018;-80.216;2022-09-03T06:34:25;101664.31;;;29.48;69.62
30152;BME280;16963;26.018;-80.216;2022-09-03T06:36:57;101664.31;;;29.48;69.70
30152;BME280;16963;26.018;-80.216;2022-09-03T06:39:25;101668.00;;;29.47;69.76
30152;BME280;16963;26.018;-80.216;2022-09-03T06:41:54;101658.19;;;29.46;69.95
30152;BME280;16963;26.018;-80.216;2022-09-03T06:46:38;101652.25;;;29.41;69.35
30152;BME280;16963;26.018;-80.216;2022-09-03T06:49:09;101645.13;;;29.39;69.58
30152;BME280;16963;26.018;-80.216;2022-09-03T06:51:37;101650.53;;;29.39;69.80
30152;BME280;16963;26.018;-80.216;2022-09-03T06:54:07;101645.13;;;29.39;69.93
30152;BME280;16963;26.018;-80.216;2022-09-03T06:56:38;101655.94;;;29.39;70.16
30152;BME280;16963;26.018;-80.216;2022-09-03T06:59:10;101659.63;;;29.38;70.11
30152;BME280;16963;26.018;-80.216;2022-09-03T07:01:39;101657.91;;;29.37;70.40
30152;BME280;16963;26.018;-80.216;2022-09-03T07:04:12;101654.47;;;29.35;70.74
30152;BME280;16963;26.018;-80.216;2022-09-03T07:08:05;101660.09;;;29.32;70.56
30152;BME280;16963;26.018;-80.216;2022-09-03T07:10:37;101655.69;;;29.31;70.87
30152;BME280;16963;26.018;-80.216;2022-09-03T07:13:07;101647.56;;;29.31;71.05
30152;BME280;16963;26.018;-80.216;2022-09-03T07:15:38;101646.09;;;29.27;71.08
30152;BME280;16963;26.018;-80.216;2022-09-03T07:18:07;101642.41;;;29.28;71.28
30152;BME280;16963;26.018;-80.216;2022-09-03T07:20:35;101655.91;;;29.28;71.58
30152;BME280;16963;26.018;-80.216;2022-09-03T07:23:03;101655.16;;;29.26;71.31
30152;BME280;16963;26.018;-80.216;2022-09-03T07:25:32;101655.16;;;29.26;71.55
30152;BME280;16963;26.018;-80.216;2022-09-03T07:30:35;101656.16;;;29.25;71.13
30152;BME280;16963;26.018;-80.216;2022-09-03T07:33:05;101651.75;;;29.24;71.41
30152;BME280;16963;26.018;-80.216;2022-09-03T07:35:35;101647.19;;;29.25;71.36
30152;BME280;16963;26.018;-80.216;2022-09-03T07:38:03;101648.31;;;29.22;71.41
30152;BME280;16963;26.018;-80.216;2022-09-03T07:40:32;101652.97;;;29.20;71.71
30152;BME280;16963;26.018;-80.216;2022-09-03T07:43:02;101651.13;;;29.21;71.40
30152;BME280;16963;26.018;-80.216;2022-09-03T07:45:32;101651.00;;;29.22;71.48
30152;BME280;16963;26.018;-80.216;2022-09-03T07:48:01;101645.72;;;29.21;71.53
30152;BME280;16963;26.018;-80.216;2022-09-03T07:52:35;101654.19;;;29.16;71.04
30152;BME280;16963;26.018;-80.216;2022-09-03T07:55:03;101665.00;;;29.16;71.19
30152;BME280;16963;26.018;-80.216;2022-09-03T07:57:32;101657.84;;;29.15;71.34
30152;BME280;16963;26.018;-80.216;2022-09-03T08:00:02;101659.59;;;29.16;71.46
30152;BME280;16963;26.018;-80.216;2022-09-03T08:02:37;101653.56;;;29.12;71.82
30152;BME280;16963;26.018;-80.216;2022-09-03T08:05:11;101652.88;;;29.09;71.82
30152;BME280;16963;26.018;-80.216;2022-09-03T08:07:38;101654.66;;;29.10;72.01
30152;BME280;16963;26.018;-80.216;2022-09-03T08:10:08;101657.38;;;29.10;72.16
30152;BME280;16963;26.018;-80.216;2022-09-03T08:13:59;101666.41;;;29.09;71.95
30152;BME280;16963;26.018;-80.216;2022-09-03T08:16:39;101663.94;;;29.06;72.70
30152;BME280;16963;26.018;-80.216;2022-09-03T08:19:08;101672.88;;;28.95;73.31
30152;BME280;16963;26.018;-80.216;2022-09-03T08:21:37;101672.72;;;28.85;73.35
30152;BME280;16963;26.018;-80.216;2022-09-03T08:24:06;101679.31;;;28.81;73.55
30152;BME280;16963;26.018;-80.216;2022-09-03T08:26:39;101681.06;;;28.82;73.44
30152;BME280;16963;26.018;-80.216;2022-09-03T08:29:12;101687.41;;;28.81;73.42
30152;BME280;16963;26.018;-80.216;2022-09-03T08:31:41;101681.38;;;28.77;73.68
30152;BME280;16963;26.018;-80.216;2022-09-03T08:34:11;101673.63;;;28.73;71.71
30152;BME280;16963;26.018;-80.216;2022-09-03T08:37:06;101663.81;;;28.72;72.46
30152;BME280;16963;26.018;-80.216;2022-09-03T08:39:38;101662.59;;;28.76;73.26
30152;BME280;16963;26.018;-80.216;2022-09-03T08:42:24;101673.28;;;28.77;74.25
30152;BME280;16963;26.018;-80.216;2022-09-03T08:44:59;101674.28;;;28.76;74.68
30152;BME280;16963;26.018;-80.216;2022-09-03T08:48:11;101677.72;;;28.78;75.29
30152;BME280;16963;26.018;-80.216;2022-09-03T08:50:46;101676.22;;;28.74;75.66
30152;BME280;16963;26.018;-80.216;2022-09-03T08:53:50;101683.47;;;28.74;75.32
30152;BME280;16963;26.018;-80.216;2022-09-03T08:57:40;101690.28;;;28.67;75.41
30152;BME280;16963;26.018;-80.216;2022-09-03T09:00:12;101685.13;;;28.64;75.84
30152;BME280;16963;26.018;-80.216;2022-09-03T09:03:32;101689.91;;;28.60;76.09
30152;BME280;16963;26.018;-80.216;2022-09-03T09:05:47;101678.44;;;28.56;76.79
30152;BME280;16963;26.018;-80.216;2022-09-03T09:11:06;101672.00;;;28.46;76.03
30152;BME280;16963;26.018;-80.216;2022-09-03T09:13:58;101677.19;;;28.49;76.35
30152;BME280;16963;26.018;-80.216;2022-09-03T09:22:16;101683.88;;;28.44;76.11
30152;BME280;16963;26.018;-80.216;2022-09-03T09:24:52;101680.41;;;28.42;75.96
30152;BME280;16963;26.018;-80.216;2022-09-03T09:27:23;101692.09;;;28.42;75.20
30152;BME280;16963;26.018;-80.216;2022-09-03T09:29:53;101694.06;;;28.40;74.98
30152;BME280;16963;26.018;-80.216;2022-09-03T09:32:22;101691.81;;;28.34;73.41
30152;BME280;16963;26.018;-80.216;2022-09-03T09:34:51;101698.16;;;28.33;73.80
30152;BME280;16963;26.018;-80.216;2022-09-03T09:37:21;101702.94;;;28.29;72.64
30152;BME280;16963;26.018;-80.216;2022-09-03T09:39:57;101694.94;;;28.28;73.66
30152;BME280;16963;26.018;-80.216;2022-09-03T09:42:41;101693.19;;;28.27;74.24
30152;BME280;16963;26.018;-80.216;2022-09-03T09:45:09;101685.84;;;28.29;74.89
30152;BME280;16963;26.018;-80.216;2022-09-03T09:47:55;101692.00;;;28.31;74.37
30152;BME280;16963;26.018;-80.216;2022-09-03T09:50:23;101693.19;;;28.27;74.43
30152;BME280;16963;26.018;-80.216;2022-09-03T09:53:00;101694.94;;;28.28;74.16
30152;BME280;16963;26.018;-80.216;2022-09-03T09:55:33;101701.31;;;28.27;73.40
30152;BME280;16963;26.018;-80.216;2022-09-03T09:58:07;101695.81;;;28.28;73.64
30152;BME280;16963;26.018;-80.216;2022-09-03T10:00:41;101694.19;;;28.26;73.37
30152;BME280;16963;26.018;-80.216;2022-09-03T10:03:26;101698.75;;;28.25;73.48
30152;BME280;16963;26.018;-80.216;2022-09-03T10:06:07;101698.59;;;28.27;73.27
30152;BME280;16963;26.018;-80.216;2022-09-03T10:10:16;101707.91;;;28.23;72.95
30152;BME280;16963;26.018;-80.216;2022-09-03T10:12:52;101713.28;;;28.23;73.41
30152;BME280;16963;26.018;-80.216;2022-09-03T10:15:40;101710.72;;;28.21;73.00
30152;BME280;16963;26.018;-80.216;2022-09-03T10:18:38;101720.88;;;28.17;72.94
30152;BME280;16963;26.018;-80.216;2022-09-03T10:21:48;101704.03;;;28.14;73.11
30152;BME280;16963;26.018;-80.216;2022-09-03T10:24:58;101708.81;;;28.10;73.36
30152;BME280;16963;26.018;-80.216;2022-09-03T10:27:28;101716.34;;;28.05;73.37
30152;BME280;16963;26.018;-80.216;2022-09-03T10:29:58;101712.16;;;28.01;72.34
30152;BME280;16963;26.018;-80.216;2022-09-03T10:35:16;101705.78;;;28.02;73.89
30152;BME280;16963;26.018;-80.216;2022-09-03T10:40:39;101712.91;;;28.03;74.84
30152;BME280;16963;26.018;-80.216;2022-09-03T10:51:27;101714.00;;;28.01;75.82
30152;BME280;16963;26.018;-80.216;2022-09-03T11:00:12;101719.59;;;27.97;76.46
30152;BME280;16963;26.018;-80.216;2022-09-03T11:05:40;101729.84;;;28.05;76.81
30152;BME280;16963;26.018;-80.216;2022-09-03T11:11:39;101727.16;;;28.05;77.08
30152;BME280;16963;26.018;-80.216;2022-09-03T11:14:12;101732.53;;;28.05;76.98
30152;BME280;16963;26.018;-80.216;2022-09-03T11:16:52;101740.97;;;28.13;77.29
30152;BME280;16963;26.018;-80.216;2022-09-03T11:19:41;101741.59;;;28.17;77.49
30152;BME280;16963;26.018;-80.216;2022-09-03T11:22:12;101747.09;;;28.15;75.92
30152;BME280;16963;26.018;-80.216;2022-09-03T11:27:34;101750.88;;;28.26;77.48
30152;BME280;16963;26.018;-80.216;2022-09-03T11:30:07;101750.63;;;28.29;77.62
30152;BME280;16963;26.018;-80.216;2022-09-03T11:32:49;101744.81;;;28.35;78.19
30152;BME280;16963;26.018;-80.216;2022-09-03T11:35:38;101751.59;;;28.41;78.49
30152;BME280;16963;26.018;-80.216;2022-09-03T11:43:43;101766.38;;;28.48;78.55
30152;BME280;16963;26.018;-80.216;2022-09-03T11:46:28;101777.94;;;28.50;78.97
30152;BME280;16963;26.018;-80.216;2022-09-03T11:49:09;101786.16;;;28.48;78.84
30152;BME280;16963;26.018;-80.216;2022-09-03T11:51:39;101777.41;;;28.45;78.21
30152;BME280;16963;26.018;-80.216;2022-09-03T11:56:46;101787.56;;;28.41;76.81
30152;BME280;16963;26.018;-80.216;2022-09-03T11:59:22;101784.97;;;28.39;76.85
30152;BME280;16963;26.018;-80.216;2022-09-03T12:02:02;101773.41;;;28.50;78.03
30152;BME280;16963;26.018;-80.216;2022-09-03T12:08:15;101773.66;;;28.84;77.91
30152;BME280;16963;26.018;-80.216;2022-09-03T12:13:57;101780.81;;;28.96;77.27
30152;BME280;16963;26.018;-80.216;2022-09-03T12:16:54;101778.56;;;28.90;77.50
30152;BME280;16963;26.018;-80.216;2022-09-03T12:22:17;101790.22;;;29.04;77.25
30152;BME280;16963;26.018;-80.216;2022-09-03T12:24:46;101791.44;;;29.24;77.09
30152;BME280;16963;26.018;-80.216;2022-09-03T12:27:23;101796.47;;;29.52;76.81
30152;BME280;16963;26.018;-80.216;2022-09-03T12:30:04;101799.16;;;29.76;75.60
30152;BME280;16963;26.018;-80.216;2022-09-03T12:32:33;101793.03;;;29.86;74.71
30152;BME280;16963;26.018;-80.216;2022-09-03T12:35:15;101794.38;;;29.91;74.73
30152;BME280;16963;26.018;-80.216;2022-09-03T12:40:22;101796.28;;;30.13;74.62
30152;BME280;16963;26.018;-80.216;2022-09-03T12:42:53;101789.53;;;30.30;73.08
30152;BME280;16963;26.018;-80.216;2022-09-03T12:45:45;101789.38;;;30.54;72.41
30152;BME280;16963;26.018;-80.216;2022-09-03T12:48:32;101796.13;;;30.71;71.67
30152;BME280;16963;26.018;-80.216;2022-09-03T12:51:02;101800.19;;;30.88;71.77
30152;BME280;16963;26.018;-80.216;2022-09-03T12:53:52;101801.88;;;31.12;70.62
30152;BME280;16963;26.018;-80.216;2022-09-03T12:56:20;101812.75;;;31.33;70.40
30152;BME280;16963;26.018;-80.216;2022-09-03T12:59:00;101809.84;;;31.57;69.26
30152;BME280;16963;26.018;-80.216;2022-09-03T13:01:53;101813.91;;;31.84;68.97
30152;BME280;16963;26.018;-80.216;2022-09-03T13:04:27;101814.47;;;32.08;68.18
30152;BME280;16963;26.018;-80.216;2022-09-03T13:07:03;101821.75;;;32.29;67.46
30152;BME280;16963;26.018;-80.216;2022-09-03T13:09:36;101819.81;;;32.50;67.02
30152;BME280;16963;26.018;-80.216;2022-09-03T13:12:06;101821.34;;;32.74;65.34
30152;BME280;16963;26.018;-80.216;2022-09-03T13:14:44;101822.28;;;32.94;63.39
30152;BME280;16963;26.018;-80.216;2022-09-03T13:20:46;101816.03;;;33.32;62.26
30152;BME280;16963;26.018;-80.216;2022-09-03T13:23:42;101820.88;;;33.58;60.68
30152;BME280;16963;26.018;-80.216;2022-09-03T13:29:04;101826.78;;;33.83;58.90
30152;BME280;16963;26.018;-80.216;2022-09-03T13:31:54;101823.13;;;34.11;59.14
30152;BME280;16963;26.018;-80.216;2022-09-03T13:34:38;101820.75;;;34.36;57.60
30152;BME280;16963;26.018;-80.216;2022-09-03T13:37:28;101807.34;;;34.52;55.86
30152;BME280;16963;26.018;-80.216;2022-09-03T13:40:09;101820.16;;;34.42;53.59
30152;BME280;16963;26.018;-80.216;2022-09-03T13:42:52;101824.78;;;34.32;53.84
30152;BME280;16963;26.018;-80.216;2022-09-03T13:50:21;101826.56;;;34.13;52.85
30152;BME280;16963;26.018;-80.216;2022-09-03T13:53:26;101828.56;;;34.11;53.24
30152;BME280;16963;26.018;-80.216;2022-09-03T13:56:15;101830.31;;;34.12;52.50
30152;BME280;16963;26.018;-80.216;2022-09-03T13:59:00;101840.03;;;34.25;51.90
30152;BME280;16963;26.018;-80.216;2022-09-03T14:01:45;101842.31;;;34.19;51.46
30152;BME280;16963;26.018;-80.216;2022-09-03T14:07:26;101847.00;;;34.37;50.13
30152;BME280;16963;26.018;-80.216;2022-09-03T14:10:23;101840.03;;;34.15;51.76
30152;BME280;16963;26.018;-80.216;2022-09-03T14:13:15;101847.03;;;34.27;52.74
30152;BME280;16963;26.018;-80.216;2022-09-03T14:21:50;101851.66;;;34.92;51.42
30152;BME280;16963;26.018;-80.216;2022-09-03T14:27:00;101865.13;;;35.21;50.47
30152;BME280;16963;26.018;-80.216;2022-09-03T14:29:30;101857.22;;;35.18;50.05
30152;BME280;16963;26.018;-80.216;2022-09-03T14:32:29;101850.44;;;35.22;49.47
30152;BME280;16963;26.018;-80.216;2022-09-03T14:37:53;101848.97;;;35.28;47.59
30152;BME280;16963;26.018;-80.216;2022-09-03T14:40:43;101850.69;;;35.47;47.90
30152;BME280;16963;26.018;-80.216;2022-09-03T14:55:14;101866.16;;;36.00;46.60
30152;BME280;16963;26.018;-80.216;2022-09-03T15:01:11;101876.53;;;35.96;46.10
30152;BME280;16963;26.018;-80.216;2022-09-03T15:04:13;101875.81;;;36.12;46.29
30152;BME280;16963;26.018;-80.216;2022-09-03T15:13:13;101879.75;;;36.70;45.84
30152;BME280;16963;26.018;-80.216;2022-09-03T15:16:12;101873.25;;;36.63;45.29
30152;BME280;16963;26.018;-80.216;2022-09-03T15:19:17;101876.59;;;36.57;46.55
30152;BME280;16963;26.018;-80.216;2022-09-03T15:31:16;101880.25;;;36.66;48.36
30152;BME280;16963;26.018;-80.216;2022-09-03T15:36:27;101881.34;;;36.81;45.17
30152;BME280;16963;26.018;-80.216;2022-09-03T15:39:14;101874.69;;;36.83;45.80
30152;BME280;16963;26.018;-80.216;2022-09-03T15:42:08;101865.34;;;37.02;44.93
30152;BME280;16963;26.018;-80.216;2022-09-03T15:44:48;101867.25;;;37.10;43.97
30152;BME280;16963;26.018;-80.216;2022-09-03T15:47:39;101869.25;;;37.00;42.69
30152;BME280;16963;26.018;-80.216;2022-09-03T15:55:42;101876.69;;;37.16;42.28
30152;BME280;16963;26.018;-80.216;2022-09-03T15:58:40;101876.38;;;37.27;40.97
30152;BME280;16963;26.018;-80.216;2022-09-03T16:01:19;101883.56;;;37.28;41.01
30152;BME280;16963;26.018;-80.216;2022-09-03T16:09:55;101875.69;;;37.41;41.02
30152;BME280;16963;26.018;-80.216;2022-09-03T16:13:03;101870.22;;;37.50;42.18
30152;BME280;16963;26.018;-80.216;2022-09-03T16:15:44;101866.13;;;37.54;40.83
30152;BME280;16963;26.018;-80.216;2022-09-03T16:18:43;101865.13;;;37.71;40.39
30152;BME280;16963;26.018;-80.216;2022-09-03T16:24:20;101852.38;;;38.28;38.56
30152;BME280;16963;26.018;-80.216;2022-09-03T16:29:17;101843.16;;;38.20;37.42
30152;BME280;16963;26.018;-80.216;2022-09-03T16:40:02;101836.03;;;37.87;40.31
30152;BME280;16963;26.018;-80.216;2022-09-03T16:43:00;101835.00;;;38.04;40.46
30152;BME280;16963;26.018;-80.216;2022-09-03T17:00:20;101823.19;;;38.51;39.66
30152;BME280;16963;26.018;-80.216;2022-09-03T17:05:56;101811.72;;;38.79;40.30
30152;BME280;16963;26.018;-80.216;2022-09-03T17:15:09;101802.81;;;38.77;40.71
30152;BME280;16963;26.018;-80.216;2022-09-03T17:21:08;101800.34;;;38.90;40.29
30152;BME280;16963;26.018;-80.216;2022-09-03T17:26:32;101787.19;;;38.54;40.34
30152;BME280;16963;26.018;-80.216;2022-09-03T17:29:22;101788.88;;;38.55;39.60
30152;BME280;16963;26.018;-80.216;2022-09-03T17:32:21;101782.38;;;38.48;39.66
30152;BME280;16963;26.018;-80.216;2022-09-03T17:38:00;101769.03;;;38.45;39.91
30152;BME280;16963;26.018;-80.216;2022-09-03T17:43:40;101772.06;;;38.19;38.71
30152;BME280;16963;26.018;-80.216;2022-09-03T17:48:59;101760.97;;;38.12;39.68
30152;BME280;16963;26.018;-80.216;2022-09-03T17:54:23;101753.66;;;38.36;40.80
30152;BME280;16963;26.018;-80.216;2022-09-03T18:02:31;101739.16;;;38.19;37.99
30152;BME280;16963;26.018;-80.216;2022-09-03T18:08:12;101735.41;;;38.51;39.10
30152;BME280;16963;26.018;-80.216;2022-09-03T18:11:16;101733.75;;;38.42;40.53